Time;durP1;ratioP1;P1;durP2;ratioP2;P2;SDS_P1;SDS_P2;PMS_P1;PMS_P2;Temp;Humidity;BMP_temperature;BMP_pressure;BME280_temperature;BME280_humidity;BME280_pressure;Samples;Min_cycle;Max_cycle;Signal;HPM_P1;HPM_P2
2024/01/02 00:00:06;;;;;;;0.30;0.20;;;;;;;9.57;93.55;99395.28;5028798;28;20460;-55
2024/01/02 00:02:33;;;;;;;0.30;0.20;;;;;;;9.61;93.78;99395.13;5013795;28;20480;-54
2024/01/02 00:05:01;;;;;;;0.30;0.20;;;;;;;9.63;93.31;99374.69;5022549;28;20489;-55
2024/01/02 00:07:28;;;;;;;0.30;0.20;;;;;;;9.64;93.45;99371.13;5020627;28;20456;-54
2024/01/02 00:09:54;;;;;;;0.30;0.20;;;;;;;9.65;92.95;99367.53;5021521;28;20449;-54
2024/01/02 00:12:21;;;;;;;0.30;0.20;;;;;;;9.66;93.15;99365.75;5022403;28;20483;-55
2024/01/02 00:14:47;;;;;;;0.30;0.20;;;;;;;9.59;92.71;99356.28;5021526;28;20495;-55
2024/01/02 00:17:14;;;;;;;0.30;0.20;;;;;;;9.78;92.74;99349.31;5020924;28;20885;-55
2024/01/02 00:19:41;;;;;;;0.30;0.20;;;;;;;9.79;92.65;99354.56;5029649;28;20478;-55
2024/01/02 00:22:07;;;;;;;0.30;0.20;;;;;;;9.82;93.11;99352.72;5025249;28;20557;-54
2024/01/02 00:24:33;;;;;;;0.30;0.20;;;;;;;9.56;92.91;99353.75;5020591;28;20539;-54
2024/01/02 00:27:02;;;;;;;0.30;0.20;;;;;;;9.59;92.96;99337.72;5021142;28;20822;-54
2024/01/02 00:29:28;;;;;;;0.30;0.17;;;;;;;9.69;92.65;99329.31;5021854;28;20522;-54
2024/01/02 00:31:55;;;;;;;0.30;0.20;;;;;;;9.69;92.42;99331.13;5022005;28;20472;-54
2024/01/02 00:34:21;;;;;;;0.30;0.20;;;;;;;9.68;92.57;99324.94;5021948;28;20493;-54
2024/01/02 00:36:48;;;;;;;0.30;0.20;;;;;;;9.73;92.39;99312.38;5021965;28;20957;-55
2024/01/02 00:39:15;;;;;;;0.30;0.20;;;;;;;9.64;92.49;99311.88;5021889;28;20480;-55
2024/01/02 00:41:42;;;;;;;0.30;0.20;;;;;;;9.75;92.78;99304.34;5021687;28;20455;-55
2024/01/02 00:44:08;;;;;;;0.30;0.20;;;;;;;9.63;92.69;99295.09;5022108;28;20456;-55
2024/01/02 00:46:35;;;;;;;0.30;0.20;;;;;;;9.66;92.75;99289.66;5020171;28;20460;-55
2024/01/02 00:49:01;;;;;;;0.30;0.20;;;;;;;9.84;92.13;99287.16;5021105;28;20456;-55
2024/01/02 00:51:28;;;;;;;0.30;0.20;;;;;;;9.68;92.66;99279.84;5024745;28;20458;-55
2024/01/02 00:53:55;;;;;;;0.30;0.20;;;;;;;9.66;93.12;99273.72;5018900;28;20539;-55
2024/01/02 00:56:21;;;;;;;0.30;0.20;;;;;;;9.58;93.69;99275.81;5013705;28;20485;-53
2024/01/02 00:58:48;;;;;;;0.30;0.20;;;;;;;9.67;93.50;99267.50;5012610;28;20976;-52
2024/01/02 01:01:16;;;;;;;0.30;0.20;;;;;;;9.68;92.95;99255.97;5009188;28;21025;-52
2024/01/02 01:03:43;;;;;;;0.30;0.20;;;;;;;9.58;93.71;99259.03;5007941;28;20500;-52
2024/01/02 01:06:09;;;;;;;0.30;0.20;;;;;;;9.64;93.99;99240.25;5012998;28;20544;-53
2024/01/02 01:08:36;;;;;;;0.30;0.20;;;;;;;9.74;93.64;99237.16;5012471;28;20452;-53
2024/01/02 01:11:03;;;;;;;0.30;0.20;;;;;;;9.66;93.91;99236.59;5012506;28;20452;-53
2024/01/02 01:13:29;;;;;;;0.30;0.20;;;;;;;9.66;94.03;99230.41;5012102;28;20555;-52
2024/01/02 01:15:56;;;;;;;0.30;0.20;;;;;;;9.65;94.75;99228.69;5011363;28;20861;-52
2024/01/02 01:18:23;;;;;;;0.30;0.20;;;;;;;9.69;94.83;99220.53;5012680;28;20523;-52
2024/01/02 01:20:49;;;;;;;0.30;0.20;;;;;;;9.62;95.34;99220.88;5012363;28;20460;-52
2024/01/02 01:23:16;;;;;;;0.30;0.20;;;;;;;9.47;95.63;99215.28;5012077;28;20854;-52
2024/01/02 01:25:42;;;;;;;0.30;0.20;;;;;;;9.68;95.72;99204.69;5012126;28;20451;-52
2024/01/02 01:28:09;;;;;;;0.30;0.20;;;;;;;9.43;96.44;99188.94;5011997;28;20453;-52
2024/01/02 01:30:36;;;;;;;0.30;0.20;;;;;;;9.55;96.28;99195.50;5012302;28;20456;-52
2024/01/02 01:33:03;;;;;;;0.30;0.20;;;;;;;9.50;96.69;99187.75;5012263;28;20473;-52
2024/01/02 01:35:31;;;;;;;0.30;0.20;;;;;;;9.48;97.23;99187.81;5012219;28;20503;-52
2024/01/02 01:37:57;;;;;;;0.30;0.20;;;;;;;9.34;98.26;99181.38;5012020;28;20490;-52
2024/01/02 01:40:24;;;;;;;0.30;0.20;;;;;;;9.34;98.17;99179.59;5011871;28;20947;-52
2024/01/02 01:42:50;;;;;;;0.30;0.20;;;;;;;9.39;98.36;99176.72;5012000;28;20504;-52
2024/01/02 01:45:18;;;;;;;0.30;0.20;;;;;;;9.37;98.82;99175.94;5011960;28;20985;-52
2024/01/02 01:47:45;;;;;;;0.30;0.20;;;;;;;9.49;98.17;99167.47;5023396;28;21000;-52
2024/01/02 01:50:13;;;;;;;0.30;0.20;;;;;;;9.46;98.63;99164.94;5012099;28;20460;-52
2024/01/02 01:52:41;;;;;;;0.30;0.20;;;;;;;9.40;98.35;99162.53;5011844;28;20518;-52
2024/01/02 01:55:09;;;;;;;0.30;0.20;;;;;;;9.34;98.72;99158.38;5011683;28;20516;-52
2024/01/02 01:57:36;;;;;;;0.30;0.20;;;;;;;9.42;98.86;99150.94;5011999;28;20527;-53
2024/01/02 02:00:04;;;;;;;0.30;0.20;;;;;;;9.44;99.51;99143.75;5012181;28;20452;-52
2024/01/02 02:02:32;;;;;;;0.30;0.20;;;;;;;9.40;99.42;99130.72;5011837;28;20491;-52
2024/01/02 02:05:00;;;;;;;0.30;0.20;;;;;;;9.27;99.64;99124.19;5011927;28;20447;-52
2024/01/02 02:07:27;;;;;;;0.30;0.20;;;;;;;9.33;100.00;99118.66;5011671;28;20483;-54
2024/01/02 02:09:54;;;;;;;0.30;0.20;;;;;;;9.30;99.59;99111.66;5012061;28;20461;-52
2024/01/02 02:12:21;;;;;;;0.30;0.20;;;;;;;9.36;99.88;99099.97;5013209;28;20503;-53
2024/01/02 02:14:47;;;;;;;0.30;0.20;;;;;;;9.45;99.51;99103.06;5015769;28;20905;-52
2024/01/02 02:17:33;;;;;;;0.30;0.20;;;;;;;9.44;99.83;99092.50;5015782;28;20456;-52
2024/01/02 02:20:00;;;;;;;0.30;0.20;;;;;;;9.30;100.00;99087.81;5015538;28;20467;-52
2024/01/02 02:22:36;;;;;;;0.30;0.20;;;;;;;9.29;100.00;99078.13;5015472;28;20989;-52
2024/01/02 02:25:05;;;;;;;0.30;0.20;;;;;;;9.24;100.00;99061.56;5015603;28;20483;-52
2024/01/02 02:27:32;;;;;;;0.30;0.20;;;;;;;9.23;100.00;99069.59;5015629;28;20519;-52
2024/01/02 02:29:59;;;;;;;0.30;0.20;;;;;;;9.27;100.00;99064.06;5029007;28;20456;-53
2024/01/02 02:32:26;;;;;;;0.30;0.20;;;;;;;9.21;100.00;99061.69;5015447;28;20820;-52
2024/01/02 02:34:53;;;;;;;0.83;0.83;;;;;;;9.26;100.00;99045.59;5015126;28;20538;-52
2024/01/02 02:37:19;;;;;;;0.30;0.20;;;;;;;9.16;100.00;99032.72;5015195;28;20949;-53
2024/01/02 02:39:46;;;;;;;0.30;0.20;;;;;;;9.22;100.00;99026.31;5015206;28;20452;-53
2024/01/02 02:42:12;;;;;;;0.30;0.20;;;;;;;9.18;100.00;99022.03;5018894;28;20545;-53
2024/01/02 02:44:42;;;;;;;0.30;0.20;;;;;;;9.17;100.00;99004.41;5015592;28;20451;-52
2024/01/02 02:47:10;;;;;;;0.30;0.20;;;;;;;9.16;100.00;98982.34;5014971;28;20452;-52
2024/01/02 02:49:37;;;;;;;0.30;0.20;;;;;;;9.20;100.00;98980.44;5015488;28;20514;-53
2024/01/02 02:52:05;;;;;;;0.30;0.20;;;;;;;9.16;100.00;98979.69;5015731;28;20547;-52
2024/01/02 02:54:31;;;;;;;0.30;0.20;;;;;;;9.22;100.00;98970.63;5014463;28;20957;-52
2024/01/02 02:56:58;;;;;;;0.30;0.20;;;;;;;9.17;100.00;98962.88;5015032;28;20495;-52
2024/01/02 02:59:25;;;;;;;0.30;0.20;;;;;;;9.24;99.75;98954.66;5014846;28;20815;-52
2024/01/02 03:01:51;;;;;;;0.30;0.20;;;;;;;9.27;99.96;98943.91;5014411;28;21052;-53
2024/01/02 03:04:18;;;;;;;0.30;0.20;;;;;;;9.23;100.00;98943.19;5015000;28;20456;-52
2024/01/02 03:06:44;;;;;;;0.30;0.20;;;;;;;9.29;99.42;98926.13;5014962;28;20895;-53
2024/01/02 03:09:11;;;;;;;0.30;0.20;;;;;;;9.27;99.84;98917.38;5020404;28;20463;-53
2024/01/02 03:11:37;;;;;;;0.30;0.20;;;;;;;9.23;99.32;98913.16;5016898;28;20938;-53
2024/01/02 03:14:04;;;;;;;0.30;0.20;;;;;;;9.22;99.66;98906.16;5014618;28;20961;-53
2024/01/02 03:16:31;;;;;;;0.30;0.20;;;;;;;9.23;99.91;98899.91;5014317;28;20496;-53
2024/01/02 03:18:57;;;;;;;0.30;0.20;;;;;;;9.25;99.71;98895.41;5014496;28;20484;-52
2024/01/02 03:21:28;;;;;;;0.30;0.20;;;;;;;9.32;99.86;98892.41;5014342;28;20515;-53
2024/01/02 03:23:55;;;;;;;0.30;0.20;;;;;;;9.35;99.77;98876.34;5016096;28;20459;-52
2024/01/02 03:26:21;;;;;;;0.30;0.20;;;;;;;9.24;100.00;98875.13;5019702;28;20503;-52
2024/01/02 03:28:48;;;;;;;0.30;0.20;;;;;;;9.31;100.00;98879.19;5014256;28;20476;-53
2024/01/02 03:31:15;;;;;;;0.30;0.20;;;;;;;9.32;100.00;98875.59;5014173;28;20892;-52
2024/01/02 03:33:41;;;;;;;0.30;0.20;;;;;;;9.31;100.00;98871.22;5021353;28;20501;-53
2024/01/02 03:36:26;;;;;;;0.30;0.20;;;;;;;9.18;100.00;98866.53;5014001;28;20492;-53
2024/01/02 03:38:53;;;;;;;0.30;0.20;;;;;;;9.23;100.00;98866.31;5014557;28;20595;-52
2024/01/02 03:41:20;;;;;;;0.30;0.20;;;;;;;9.16;100.00;98855.09;5013850;28;20530;-52
2024/01/02 03:43:47;;;;;;;0.30;0.20;;;;;;;9.19;100.00;98827.63;5014223;28;20534;-52
2024/01/02 03:46:14;;;;;;;0.30;0.20;;;;;;;9.27;100.00;98832.53;5013533;28;20510;-52
2024/01/02 03:48:40;;;;;;;0.30;0.20;;;;;;;9.36;100.00;98822.38;5020313;28;20480;-53
2024/01/02 03:51:07;;;;;;;0.30;0.20;;;;;;;9.20;100.00;98821.38;5013862;28;20448;-52
2024/01/02 03:53:34;;;;;;;0.30;0.20;;;;;;;9.29;100.00;98812.13;5013560;28;20476;-52
2024/01/02 03:56:00;;;;;;;0.30;0.20;;;;;;;9.27;100.00;98800.72;5013489;28;20515;-52
2024/01/02 03:58:27;;;;;;;0.30;0.20;;;;;;;9.40;100.00;98800.06;5014073;28;20488;-52
2024/01/02 04:00:55;;;;;;;0.30;0.20;;;;;;;9.26;100.00;98786.63;5013604;28;20452;-52
2024/01/02 04:03:22;;;;;;;0.30;0.20;;;;;;;9.48;100.00;98774.06;5005984;28;20472;-52
2024/01/02 04:05:49;;;;;;;0.30;0.20;;;;;;;9.47;100.00;98768.81;5013553;28;20445;-52
2024/01/02 04:08:16;;;;;;;0.30;0.20;;;;;;;9.53;100.00;98775.63;5006141;28;20460;-52
2024/01/02 04:10:42;;;;;;;0.30;0.20;;;;;;;9.42;100.00;98760.22;5013163;28;20973;-52
2024/01/02 04:13:12;;;;;;;0.30;0.20;;;;;;;9.40;100.00;98757.66;5015552;28;21009;-52
2024/01/02 04:15:39;;;;;;;0.30;0.20;;;;;;;9.34;100.00;98730.59;5014007;28;20488;-52
2024/01/02 04:18:06;;;;;;;0.30;0.20;;;;;;;9.35;100.00;98730.50;5021548;28;20501;-53
2024/01/02 04:20:33;;;;;;;0.30;0.20;;;;;;;9.50;100.00;98718.28;5019966;28;20584;-52
2024/01/02 04:23:00;;;;;;;0.30;0.20;;;;;;;9.59;100.00;98711.63;5018231;28;20845;-53
2024/01/02 04:25:27;;;;;;;0.30;0.20;;;;;;;9.66;100.00;98727.19;5012734;28;20527;-52
2024/01/02 04:27:54;;;;;;;0.30;0.20;;;;;;;9.65;100.00;98712.22;5013309;28;20457;-51
2024/01/02 04:30:22;;;;;;;0.30;0.20;;;;;;;9.68;100.00;98711.19;5000063;28;20821;-52
2024/01/02 04:32:49;;;;;;;0.30;0.20;;;;;;;9.63;100.00;98705.28;5013110;28;20479;-52
2024/01/02 04:35:15;;;;;;;0.30;0.20;;;;;;;9.62;100.00;98699.09;4999403;28;20515;-52
2024/01/02 04:37:43;;;;;;;0.30;0.20;;;;;;;9.59;100.00;98688.63;5012483;28;20474;-52
2024/01/02 04:40:10;;;;;;;0.30;0.20;;;;;;;9.72;100.00;98692.38;5012989;28;20511;-53
2024/01/02 04:42:38;;;;;;;0.30;0.20;;;;;;;9.72;100.00;98676.44;5009243;28;20522;-51
2024/01/02 04:45:05;;;;;;;0.30;0.20;;;;;;;9.73;100.00;98675.53;5010737;28;20453;-52
2024/01/02 04:47:32;;;;;;;0.30;0.20;;;;;;;9.76;100.00;98670.06;5012881;28;20453;-52
2024/01/02 04:50:00;;;;;;;0.30;0.20;;;;;;;9.68;100.00;98661.63;5012745;28;20449;-52
2024/01/02 04:52:26;;;;;;;0.30;0.20;;;;;;;9.70;100.00;98654.44;5012287;28;20989;-52
2024/01/02 04:54:53;;;;;;;0.30;0.20;;;;;;;9.78;100.00;98646.97;5012864;28;20453;-51
2024/01/02 04:57:19;;;;;;;0.30;0.20;;;;;;;9.95;100.00;98639.91;5012556;28;21048;-51
2024/01/02 04:59:48;;;;;;;0.30;0.20;;;;;;;9.85;100.00;98633.38;5012792;28;20483;-51
2024/01/02 05:02:15;;;;;;;0.30;0.20;;;;;;;9.93;100.00;98632.03;5004511;28;20458;-51
2024/01/02 05:04:42;;;;;;;0.30;0.20;;;;;;;9.93;100.00;98609.94;5012447;28;20453;-51
2024/01/02 05:07:09;;;;;;;0.30;0.20;;;;;;;9.86;100.00;98620.00;5012621;28;20480;-51
2024/01/02 05:09:35;;;;;;;0.30;0.20;;;;;;;9.78;100.00;98596.56;5011501;28;20941;-51
2024/01/02 05:12:02;;;;;;;0.30;0.20;;;;;;;9.77;100.00;98594.00;5012308;28;20523;-51
2024/01/02 05:14:29;;;;;;;0.30;0.20;;;;;;;9.82;100.00;98585.78;5012508;28;20785;-51
2024/01/02 05:16:56;;;;;;;0.30;0.20;;;;;;;9.79;100.00;98587.66;5012200;28;20492;-51
2024/01/02 05:19:22;;;;;;;0.30;0.20;;;;;;;9.78;100.00;98585.94;5012300;28;20957;-51
2024/01/02 05:21:51;;;;;;;0.30;0.20;;;;;;;9.80;100.00;98583.19;5012057;28;20500;-51
2024/01/02 05:24:17;;;;;;;0.30;0.20;;;;;;;9.74;100.00;98579.09;5012348;28;20511;-51
2024/01/02 05:26:44;;;;;;;0.30;0.20;;;;;;;9.80;100.00;98580.56;5011970;28;20495;-51
2024/01/02 05:29:10;;;;;;;0.30;0.20;;;;;;;9.91;100.00;98572.03;5012268;28;20507;-51
2024/01/02 05:31:37;;;;;;;0.30;0.20;;;;;;;9.88;100.00;98575.72;5011951;28;20452;-52
2024/01/02 05:34:04;;;;;;;0.30;0.20;;;;;;;10.12;100.00;98578.81;5012069;28;20454;-52
2024/01/02 05:36:30;;;;;;;0.30;0.20;;;;;;;10.08;100.00;98577.28;5012195;28;20496;-52
2024/01/02 05:38:57;;;;;;;0.30;0.20;;;;;;;10.15;100.00;98581.31;5012169;28;20448;-52
2024/01/02 05:41:23;;;;;;;0.30;0.20;;;;;;;10.02;100.00;98575.81;5011958;28;20475;-52
2024/01/02 05:43:50;;;;;;;0.30;0.20;;;;;;;10.18;100.00;98567.88;5012038;28;21349;-52
2024/01/02 05:46:16;;;;;;;0.30;0.20;;;;;;;10.20;100.00;98573.09;5011740;28;20510;-52
2024/01/02 05:48:43;;;;;;;0.30;0.20;;;;;;;10.04;100.00;98554.50;5012027;28;20538;-52
2024/01/02 05:51:09;;;;;;;0.30;0.20;;;;;;;10.01;100.00;98559.97;5012034;28;20465;-51
2024/01/02 05:53:36;;;;;;;0.30;0.20;;;;;;;10.20;100.00;98559.81;5011572;28;20480;-52
2024/01/02 05:56:03;;;;;;;0.30;0.20;;;;;;;10.14;100.00;98554.84;5011580;28;20587;-53
2024/01/02 05:58:29;;;;;;;0.30;0.20;;;;;;;10.05;100.00;98553.56;5011746;28;20510;-52
2024/01/02 06:00:56;;;;;;;0.30;0.20;;;;;;;10.20;100.00;98551.88;5011652;28;20449;-53
2024/01/02 06:03:23;;;;;;;0.30;0.20;;;;;;;10.22;100.00;98560.63;5004820;28;20500;-53
2024/01/02 06:05:49;;;;;;;0.30;0.20;;;;;;;10.26;100.00;98551.53;5011714;28;20531;-53
2024/01/02 06:08:16;;;;;;;0.30;0.20;;;;;;;10.20;100.00;98558.03;5004856;28;20542;-53
2024/01/02 06:10:42;;;;;;;0.30;0.20;;;;;;;10.14;100.00;98554.84;5011566;28;20456;-52
2024/01/02 06:13:09;;;;;;;0.30;0.20;;;;;;;10.02;100.00;98551.94;5011755;28;20469;-53
2024/01/02 06:15:35;;;;;;;0.30;0.20;;;;;;;10.03;100.00;98556.31;5011443;28;20456;-51
2024/01/02 06:18:02;;;;;;;0.30;0.20;;;;;;;10.09;100.00;98552.44;5011848;28;20484;-52
2024/01/02 06:20:30;;;;;;;0.30;0.20;;;;;;;10.20;100.00;98551.88;5011711;28;20453;-52
2024/01/02 06:22:56;;;;;;;0.30;0.20;;;;;;;10.31;100.00;98552.16;5011586;28;20480;-53
2024/01/02 06:25:23;;;;;;;0.30;0.20;;;;;;;10.28;100.00;98550.53;5011393;28;20933;-53
2024/01/02 06:27:49;;;;;;;0.30;0.20;;;;;;;10.23;100.00;98552.56;5010228;28;20484;-53
2024/01/02 06:30:17;;;;;;;0.30;0.20;;;;;;;10.35;100.00;98561.66;5011560;28;20456;-53
2024/01/02 06:32:45;;;;;;;0.30;0.20;;;;;;;10.27;100.00;98555.91;5011243;28;20890;-53
2024/01/02 06:35:12;;;;;;;0.30;0.20;;;;;;;10.17;100.00;98563.50;5011613;28;20456;-53
2024/01/02 06:37:39;;;;;;;0.30;0.20;;;;;;;10.21;100.00;98566.84;5011347;28;20575;-53
2024/01/02 06:40:06;;;;;;;0.30;0.20;;;;;;;10.23;100.00;98567.66;5011228;28;20905;-53
2024/01/02 06:42:33;;;;;;;0.30;0.20;;;;;;;10.31;100.00;98565.44;5011152;28;20472;-53
2024/01/02 06:44:59;;;;;;;0.30;0.20;;;;;;;10.32;100.00;98560.03;5011563;28;20526;-53
2024/01/02 06:47:27;;;;;;;0.30;0.20;;;;;;;10.25;100.00;98547.16;5011383;28;20452;-53
2024/01/02 06:49:53;;;;;;;0.30;0.20;;;;;;;10.22;100.00;98548.19;5011346;28;20455;-53
2024/01/02 06:52:20;;;;;;;0.30;0.20;;;;;;;10.27;100.00;98545.28;5010995;28;20926;-53
2024/01/02 06:54:47;;;;;;;0.30;0.20;;;;;;;10.31;100.00;98560.97;5011308;28;20504;-53
2024/01/02 06:57:13;;;;;;;0.30;0.20;;;;;;;10.33;100.00;98560.91;5010928;28;20492;-53
2024/01/02 06:59:39;;;;;;;0.30;0.20;;;;;;;10.41;100.00;98552.47;5013166;28;20506;-52
2024/01/02 07:02:06;;;;;;;0.30;0.20;;;;;;;10.33;100.00;98552.94;5006614;28;20836;-53
2024/01/02 07:04:33;;;;;;;0.30;0.20;;;;;;;10.22;100.00;98571.25;5014833;28;20464;-53
2024/01/02 07:06:59;;;;;;;0.30;0.20;;;;;;;10.30;100.00;98569.91;5014716;28;20448;-53
2024/01/02 07:09:26;;;;;;;0.30;0.20;;;;;;;10.28;100.00;98568.25;5014731;28;20510;-53
2024/01/02 07:11:52;;;;;;;0.30;0.20;;;;;;;10.27;100.00;98564.72;5014275;28;20556;-53
2024/01/02 07:14:19;;;;;;;0.30;0.20;;;;;;;10.36;100.00;98564.22;5014582;28;20447;-53
2024/01/02 07:16:45;;;;;;;0.30;0.20;;;;;;;10.43;100.00;98563.91;5014602;28;20492;-53
2024/01/02 07:19:12;;;;;;;0.30;0.20;;;;;;;10.36;100.00;98572.19;5014509;28;20592;-53
2024/01/02 07:21:38;;;;;;;0.30;0.20;;;;;;;10.28;100.00;98571.78;5014416;28;20484;-53
2024/01/02 07:24:05;;;;;;;0.30;0.20;;;;;;;10.42;100.00;98578.13;5014391;28;20452;-52
2024/01/02 07:26:31;;;;;;;0.30;0.20;;;;;;;10.41;100.00;98582.56;5014334;28;20522;-53
2024/01/02 07:28:58;;;;;;;0.30;0.20;;;;;;;10.45;100.00;98591.25;5014243;28;20942;-53
2024/01/02 07:31:26;;;;;;;0.30;0.20;;;;;;;10.41;100.00;98582.56;5014294;28;20523;-52
2024/01/02 07:33:52;;;;;;;0.30;0.20;;;;;;;10.36;100.00;98577.50;5014351;28;20883;-53
2024/01/02 07:36:19;;;;;;;0.30;0.20;;;;;;;10.35;100.00;98572.28;5014118;28;20497;-53
2024/01/02 07:38:45;;;;;;;0.30;0.20;;;;;;;10.46;100.00;98567.25;5014168;28;20475;-59
2024/01/02 07:41:12;;;;;;;0.30;0.20;;;;;;;10.37;100.00;98583.69;5014347;28;20938;-53
2024/01/02 07:43:39;;;;;;;0.30;0.20;;;;;;;10.36;100.00;98576.66;5014185;28;21007;-52
2024/01/02 07:46:05;;;;;;;0.30;0.20;;;;;;;10.55;100.00;98585.34;5013732;28;21017;-54
2024/01/02 07:48:32;;;;;;;0.30;0.20;;;;;;;10.50;100.00;98579.41;5014062;28;20780;-53
2024/01/02 07:50:58;;;;;;;0.30;0.20;;;;;;;10.53;100.00;98575.72;5013810;28;20453;-56
2024/01/02 07:53:25;;;;;;;0.30;0.20;;;;;;;10.55;100.00;98579.13;5013487;28;20575;-56
2024/01/02 07:55:51;;;;;;;0.30;0.20;;;;;;;10.47;100.00;98566.28;5013646;28;20472;-55
2024/01/02 07:58:18;;;;;;;0.30;0.20;;;;;;;10.63;100.00;98579.56;5013749;28;20453;-56
2024/01/02 08:00:44;;;;;;;0.30;0.20;;;;;;;10.51;100.00;98591.75;5013869;28;20448;-54
2024/01/02 08:03:11;;;;;;;0.30;0.20;;;;;;;10.64;100.00;98583.94;5005930;28;20570;-54
2024/01/02 08:05:38;;;;;;;0.30;0.20;;;;;;;10.55;100.00;98592.41;5013688;28;20459;-53
2024/01/02 08:08:05;;;;;;;0.30;0.20;;;;;;;10.53;100.00;98581.88;5013538;28;20471;-56
2024/01/02 08:10:33;;;;;;;0.30;0.20;;;;;;;10.59;100.00;98576.25;5013645;28;20452;-51
2024/01/02 08:12:59;;;;;;;0.30;0.20;;;;;;;10.68;100.00;98583.66;5013460;28;20837;-51
2024/01/02 08:15:26;;;;;;;0.30;0.20;;;;;;;10.74;100.00;98590.47;5013550;28;20588;-51
2024/01/02 08:18:06;;;;;;;0.30;0.20;;;;;;;10.60;100.00;98601.00;5013350;28;20514;-51
2024/01/02 08:20:33;;;;;;;0.30;0.20;;;;;;;10.71;100.00;98587.97;5013240;28;20522;-50
2024/01/02 08:23:00;;;;;;;0.30;0.20;;;;;;;10.71;100.00;98587.13;5013325;28;20475;-51
2024/01/02 08:25:26;;;;;;;0.30;0.20;;;;;;;10.72;100.00;98594.16;5013451;28;20452;-51
2024/01/02 08:27:53;;;;;;;0.30;0.20;;;;;;;10.66;100.00;98609.47;5013261;28;20452;-51
2024/01/02 08:30:19;;;;;;;0.30;0.20;;;;;;;10.58;100.00;98605.56;5013247;28;20476;-51
2024/01/02 08:32:46;;;;;;;0.30;0.20;;;;;;;10.73;100.00;98603.84;5012983;28;20544;-51
2024/01/02 08:35:13;;;;;;;0.30;0.20;;;;;;;10.67;100.00;98611.19;5013020;28;20531;-51
2024/01/02 08:37:43;;;;;;;0.30;0.20;;;;;;;10.77;100.00;98603.56;5013067;28;20496;-51
2024/01/02 08:40:13;;;;;;;0.30;0.20;;;;;;;10.74;100.00;98614.38;5013230;28;20591;-51
2024/01/02 08:42:39;;;;;;;0.30;0.20;;;;;;;10.72;100.00;98612.75;5012712;28;20447;-51
2024/01/02 08:45:07;;;;;;;0.30;0.20;;;;;;;10.72;100.00;98620.72;5012992;28;20455;-51
2024/01/02 08:47:36;;;;;;;0.30;0.20;;;;;;;10.86;100.00;98618.16;5012726;28;20460;-51
2024/01/02 08:50:03;;;;;;;0.30;0.20;;;;;;;10.84;99.76;98609.41;5013037;28;20453;-51
2024/01/02 08:52:30;;;;;;;0.30;0.20;;;;;;;10.59;100.00;98625.88;5012737;28;20944;-51
2024/01/02 08:54:56;;;;;;;0.30;0.20;;;;;;;10.83;100.00;98631.63;5012958;28;20550;-51
2024/01/02 08:57:23;;;;;;;0.30;0.20;;;;;;;10.71;100.00;98632.31;5012309;28;20490;-50
2024/01/02 08:59:49;;;;;;;0.30;0.20;;;;;;;10.83;100.00;98640.44;5012531;28;20452;-51
2024/01/02 09:02:16;;;;;;;0.30;0.20;;;;;;;10.67;100.00;98640.41;5004451;28;20484;-51
2024/01/02 09:04:43;;;;;;;0.30;0.20;;;;;;;10.73;100.00;98631.28;5012480;28;20863;-51
2024/01/02 09:07:10;;;;;;;0.30;0.20;;;;;;;10.77;100.00;98624.81;5012354;28;20942;-51
2024/01/02 09:09:36;;;;;;;0.30;0.20;;;;;;;10.79;100.00;98625.59;5012817;28;20476;-54
2024/01/02 09:12:03;;;;;;;0.30;0.20;;;;;;;10.82;100.00;98619.25;5012486;28;20535;-54
2024/01/02 09:14:30;;;;;;;0.30;0.20;;;;;;;10.77;100.00;98622.16;5012572;28;20491;-54
2024/01/02 09:16:57;;;;;;;0.30;0.20;;;;;;;10.78;100.00;98629.19;5012278;28;20498;-53
2024/01/02 09:19:24;;;;;;;0.30;0.20;;;;;;;10.82;100.00;98622.75;5012641;28;20503;-54
2024/01/02 09:21:50;;;;;;;0.30;0.20;;;;;;;10.84;100.00;98625.34;5011861;28;20484;-52
2024/01/02 09:24:18;;;;;;;0.30;0.20;;;;;;;10.74;100.00;98632.97;5012295;28;21057;-54
2024/01/02 09:26:48;;;;;;;0.30;0.20;;;;;;;10.78;100.00;98629.19;5012216;28;20938;-54
2024/01/02 09:29:14;;;;;;;0.30;0.20;;;;;;;10.76;100.00;98630.22;5012212;28;20449;-54
2024/01/02 09:31:41;;;;;;;0.30;0.20;;;;;;;10.80;100.00;98635.28;5012190;28;20456;-54
2024/01/02 09:34:09;;;;;;;0.30;0.20;;;;;;;10.87;100.00;98631.34;5012409;28;20476;-54
2024/01/02 09:36:35;;;;;;;0.30;0.20;;;;;;;10.93;100.00;98635.44;5012065;28;20519;-54
2024/01/02 09:39:02;;;;;;;0.30;0.20;;;;;;;10.86;100.00;98648.25;5012263;28;20817;-54
2024/01/02 09:41:34;;;;;;;0.30;0.20;;;;;;;10.98;100.00;98644.91;5012027;28;20625;-53
2024/01/02 09:44:26;;;;;;;0.30;0.20;;;;;;;10.90;100.00;98646.25;5012017;28;20459;-54
2024/01/02 09:47:16;;;;;;;0.30;0.20;;;;;;;10.91;100.00;98655.94;5012232;28;20535;-54
2024/01/02 09:50:09;;;;;;;0.30;0.20;;;;;;;10.97;100.00;98645.00;4999763;28;20423;-54
2024/01/02 09:52:46;;;;;;;0.30;0.20;;;;;;;11.12;100.00;98630.81;5011584;28;20483;-54
2024/01/02 09:55:33;;;;;;;0.30;0.20;;;;;;;11.05;100.00;98642.72;5012267;28;20444;-53
2024/01/02 09:58:38;;;;;;;0.30;0.20;;;;;;;11.02;100.00;98640.25;5000710;28;20554;-54
2024/01/02 10:01:22;;;;;;;0.30;0.20;;;;;;;11.02;100.00;98636.75;4957287;28;20451;-53
2024/01/02 10:04:19;;;;;;;0.30;0.20;;;;;;;11.05;100.00;98631.25;5008055;28;20476;-52
2024/01/02 10:06:57;;;;;;;0.30;0.20;;;;;;;11.17;100.00;98636.72;5012058;28;20503;-53
2024/01/02 10:09:30;;;;;;;0.30;0.20;;;;;;;11.11;100.00;98631.75;5000380;28;20491;-53
2024/01/02 10:11:59;;;;;;;0.30;0.20;;;;;;;11.22;100.00;98631.97;5011750;28;20530;-53
2024/01/02 10:14:36;;;;;;;0.30;0.20;;;;;;;11.20;100.00;98625.03;5011761;28;20448;-53
2024/01/02 10:17:42;;;;;;;0.30;0.20;;;;;;;11.26;100.00;98636.19;5011677;28;20488;-53
2024/01/02 10:20:27;;;;;;;0.30;0.20;;;;;;;11.35;99.80;98640.09;5005641;28;20858;-53
2024/01/02 10:23:02;;;;;;;0.30;0.20;;;;;;;11.35;99.95;98634.78;5011707;28;20475;-53
2024/01/02 10:25:30;;;;;;;0.30;0.20;;;;;;;11.26;99.72;98628.22;4999366;28;20455;-53
2024/01/02 10:28:13;;;;;;;0.30;0.20;;;;;;;11.43;100.00;98627.22;5011905;28;20445;-53
2024/01/02 10:31:06;;;;;;;0.30;0.20;;;;;;;11.39;99.02;98611.53;5012500;28;20528;-53
2024/01/02 10:33:43;;;;;;;0.30;0.20;;;;;;;11.23;99.14;98620.38;4999074;28;20527;-54
2024/01/02 10:36:11;;;;;;;0.30;0.20;;;;;;;11.28;99.33;98610.34;5015269;28;20479;-53
2024/01/02 10:39:21;;;;;;;0.30;0.20;;;;;;;11.26;99.34;98617.56;5015658;28;20557;-52
2024/01/02 10:42:08;;;;;;;0.30;0.20;;;;;;;11.31;99.16;98619.09;5003723;28;20460;-53
2024/01/02 10:45:16;;;;;;;0.30;0.20;;;;;;;11.35;98.28;98609.97;5015220;28;20449;-53
2024/01/02 10:48:21;;;;;;;0.30;0.20;;;;;;;11.39;97.89;98606.22;4954318;28;20447;-52
2024/01/02 10:51:10;;;;;;;0.30;0.20;;;;;;;11.34;98.08;98606.47;4997036;28;20678;-52
2024/01/02 10:53:57;;;;;;;0.30;0.20;;;;;;;11.52;98.16;98609.88;5014816;28;20526;-53
2024/01/02 10:56:45;;;;;;;0.30;0.20;;;;;;;11.51;98.39;98597.47;5003642;28;20479;-53
2024/01/02 10:59:34;;;;;;;0.30;0.20;;;;;;;11.52;97.22;98593.91;5015369;28;20480;-53
2024/01/02 11:02:31;;;;;;;0.30;0.20;;;;;;;11.49;98.15;98597.56;5014741;28;20476;-53
2024/01/02 11:05:11;;;;;;;0.30;0.20;;;;;;;11.67;96.90;98592.13;5015195;28;20506;-52
2024/01/02 11:07:41;;;;;;;0.30;0.20;;;;;;;11.65;97.11;98594.88;5009602;28;20448;-52
2024/01/02 11:10:12;;;;;;;0.30;0.20;;;;;;;11.59;97.07;98597.88;5014711;28;20514;-52
2024/01/02 11:12:55;;;;;;;0.30;0.20;;;;;;;11.52;96.95;98589.44;5014608;28;20500;-53
2024/01/02 11:15:34;;;;;;;0.30;0.20;;;;;;;11.79;96.55;98581.63;5013213;28;20444;-53
2024/01/02 11:18:03;;;;;;;0.30;0.20;;;;;;;11.54;96.58;98581.34;5014792;28;20544;-53
2024/01/02 11:20:43;;;;;;;0.30;0.20;;;;;;;11.72;96.95;98577.56;5001581;28;20514;-53
2024/01/02 11:23:13;;;;;;;0.30;0.20;;;;;;;11.63;96.91;98577.25;5014433;28;20468;-52
2024/01/02 11:25:49;;;;;;;0.30;0.20;;;;;;;11.85;96.52;98570.59;5014370;28;20543;-53
2024/01/02 11:28:34;;;;;;;0.30;0.20;;;;;;;11.71;96.39;98561.69;5014313;28;20452;-53
2024/01/02 11:31:04;;;;;;;0.30;0.20;;;;;;;11.63;97.22;98558.63;5014475;28;20457;-53
2024/01/02 11:33:44;;;;;;;0.30;0.20;;;;;;;11.39;97.81;98567.16;5001731;28;20475;-53
2024/01/02 11:36:40;;;;;;;0.30;0.20;;;;;;;11.33;98.00;98556.88;5014159;28;20465;-53
2024/01/02 11:39:11;;;;;;;0.30;0.20;;;;;;;11.40;98.76;98554.72;5007760;28;20503;-53
2024/01/02 11:42:00;;;;;;;0.30;0.20;;;;;;;11.30;98.10;98551.75;5001456;28;20867;-53